Grand Island, California
Current Conditions -  °F | °C
As of 4:58 PM on Friday 31 Oct 2014 (Local Time) from KSUU Reporting Station
Clear Clear  
Wind Chill: 57°   Ceiling: Unl
Heat Index: 57°   Visibility: 10mi
Dew Point: 57°   Wind: 9mph
Humidity: 100%   Direction: 240°WSW
Pressure: 29.76"   Gusts: NA
Location:  38.2298°N, 121.579°W
Report Text: KSUU 312358Z AUTO 24008KT 10SM CLR 14/14 A2976 RMK AO2 SLP084 60021 T01400140 10166 20139 57016 $
Loading
Personal Weather Stations






























Interactive Weather Map
Tropical Storm Tracking
New forecast layout! Learn more

10-Day Weather Forecast

Advertisements
Track Severe Weather on mobile